Winston Salem, NC

12:40 PM EDT on May 30, 2015 (GMT -0400)
Waughtown (109] NC | | Change Station
CLOSE
Current Station
Personal Weather Station
Location: Winston-Salem, NC
Elevation: 925 ft
Nearby Weather Stations

Elev 925 ft 36.06 °N, 80.22 °W | Updated 1 minute ago

Mostly Cloudy
Mostly Cloudy
82.6 °F
Feels Like 96 °F
N
3.2
Wind Variable Wind from SW

Today
High -- | Low -- °F
--% Chance of Precip.
Yesterday
High -- | Low -- °F
Precip. -- in
6:06 AM 8:31 PM
Waxing Gibbous, 91% visible
Pressure 30.20 in
Visibility 10.0 miles
Clouds Mostly Cloudy 3600 ft
Mostly Cloudy 7000 ft
Heat Index 96 °F
Dew Point 82 °F
Humidity 98%
Rainfall in
Snow Depth Not available.
UV 6 out of 12
Pollen 8.00 out of 12
Air Quality Not available.
Flu Activity No Activity
METAR KINT 301554Z VRB04KT 10SM BKN036 BKN070 27/17 A3023 RMK AO2 SLP225 T02720172

More Conditions Fewer Conditions

Pressure 30.20 in
Visibility 10.0 miles
Clouds Mostly Cloudy 3600 ft
Mostly Cloudy 7000 ft
Heat Index 96 °F
Dew Point 82 °F
Humidity 98%
Rainfall in
Snow Depth Not available.
UV 6 out of 12
Pollen 8.00 out of 12
Air Quality Not available.
Flu Activity No Activity
METAR KINT 301554Z VRB04KT 10SM BKN036 BKN070 27/17 A3023 RMK AO2 SLP225 T02720172

More Conditions Fewer Conditions

10-Day Weather Forecast

Almanac

Astronomy

May. 30, 2015 Rise Set
Actual Time
Civil Twilight
Nautical Twilight
Astronomical Twilight
Moon
Length of Visible Light
Length of Day
Tomorrow will be .
, % of the Moon is Illuminated

Today's Extremes

State Highs State Lows

Community

WunderPhotos

Upload Photos

1,825,566 photos uploaded!

WunderBlogs® & News

Nearby

Air Quality

  Air Quality AQ Index Pollutant
Not available.

Snow Depth

Station Depth Elevation

Earthquake Activity

City Distance Mag. Time & Date
Minimum magnitude displayed is 2.5.

Coastal Water Temperatures

Place Temperature

Stations

Nearby Weather Stations

Station Location Temp. Windchill Dew Point Humidity Wind Precip. Elev Updated Type